Weather at Wellington Municipal Airport

Public forecast

Using degrees Fahrenheit for public forecast. Weather courtesy of forecast.io.

Closest aviation weather report (METAR) to Wellington Municipal Airport

Closest report is Mc Connell Air Force Base, 18.8 nm (34.8 km) NNE. Retrieved 2020/09/28 04:56 UTC (34 minutes ago):

KIAB 280456Z AUTO 26003KT 10SM FEW070 OVC095 12/08 A3005 RMK AO2 RAE01DZB01E05DZB15E25 SLP174 P0000 T01230082

Closest aviation forecast (TAF) to Wellington Municipal Airport

Forecast is more than 12 hours old.

Closest forecast is Mc Connell Air Force Base, 18.8 nm (34.8 km) NNE. Retrieved 2020/09/27 10:09 UTC (19 hours ago):

TAF TAF KIAB 271000Z 2710/2816 18010KT 9999 BKN007 QNH2970INS BECMG 2714/2715 09012G18KT 8000 -SHRA BKN015 QNH2975INS BECMG 2719/2720 02015G25KT 8000 -SHRA VCTS BKN020CB QNH2982INS TEMPO 2720/2723 8000 -TSRA OVC015CB BECMG 2723/2724 36010KT 9999 NSW BKN100 QNH2993INS TX21/2718Z TN19/2711Z LAST NO AMDS AFT 2710 NEXT 2810